createdAt,value
2023-02-13T00:00:49.815Z,99.5
2023-02-13T00:01:54.965Z,99.5
2023-02-13T00:03:01.230Z,99.5
2023-02-13T00:04:07.662Z,99.5
2023-02-13T00:05:13.967Z,99.5
2023-02-13T00:06:20.192Z,99.5
2023-02-13T00:07:26.499Z,99.5
2023-02-13T00:08:32.720Z,99.5
2023-02-13T00:09:38.085Z,99.5
2023-02-13T00:10:43.308Z,99.5
2023-02-13T00:11:49.623Z,99.5
2023-02-13T00:12:54.922Z,99.5
2023-02-13T00:14:00.197Z,99.5
2023-02-13T00:15:06.433Z,99.5
2023-02-13T00:16:12.740Z,99.5
2023-02-13T00:17:19.073Z,99.5
2023-02-13T00:18:25.296Z,99.5
2023-02-13T00:19:31.573Z,99.5
2023-02-13T00:20:37.673Z,99.5
2023-02-13T00:21:44.143Z,99.5
2023-02-13T00:22:50.374Z,99.5
2023-02-13T00:23:56.662Z,99.5
2023-02-13T00:25:02.762Z,99.5
2023-02-13T00:26:09.216Z,99.5
2023-02-13T00:27:15.474Z,99.5
2023-02-13T00:28:20.822Z,99.5
2023-02-13T00:29:27.029Z,99.5
2023-02-13T00:30:33.292Z,99.5
2023-02-13T00:31:39.555Z,99.5
2023-02-13T00:32:45.838Z,99.5
2023-02-13T00:33:52.127Z,99.5
2023-02-13T00:34:58.412Z,99.5
2023-02-13T00:36:03.742Z,99.5
2023-02-13T00:37:08.986Z,99.5
2023-02-13T00:38:15.218Z,99.5
2023-02-13T00:39:20.582Z,99.5
2023-02-13T00:40:25.892Z,99.5
2023-02-13T00:41:32.121Z,99.5
2023-02-13T00:42:38.368Z,99.5
2023-02-13T00:43:44.536Z,99.5
2023-02-13T00:44:50.952Z,99.5
2023-02-13T00:45:57.200Z,99.5
2023-02-13T00:47:03.454Z,99.5
2023-02-13T00:48:09.775Z,99.5
2023-02-13T00:49:15.839Z,99.5
2023-02-13T00:50:22.328Z,99.5
2023-02-13T00:51:28.560Z,99.5
2023-02-13T00:52:34.795Z,99.5
2023-02-13T00:53:41.165Z,99.5
2023-02-13T00:54:46.364Z,99.5
2023-02-13T00:55:52.504Z,99.5
2023-02-13T00:56:58.777Z,99.5
2023-02-13T00:58:05.064Z,99.5
2023-02-13T00:59:11.421Z,99.5
2023-02-13T01:00:17.736Z,99.5
2023-02-13T01:01:24.009Z,99.5
2023-02-13T01:02:29.346Z,99.5
2023-02-13T01:03:34.540Z,99.5
2023-02-13T01:04:40.920Z,99.5
2023-02-13T01:05:46.982Z,99.5
2023-02-13T01:06:53.390Z,99.5
2023-02-13T01:07:58.733Z,99.5
2023-02-13T01:09:05.003Z,99.5
2023-02-13T01:10:10.128Z,99.5
2023-02-13T01:11:16.459Z,99.5
2023-02-13T01:12:22.761Z,99.5
2023-02-13T01:13:29.196Z,99.5
2023-02-13T01:14:35.320Z,99.5
2023-02-13T01:15:41.531Z,99.5
2023-02-13T01:16:47.748Z,99.5
2023-02-13T01:17:54.246Z,99.5
2023-02-13T01:19:00.473Z,99.5
2023-02-13T01:20:06.743Z,99.5
2023-02-13T01:21:13.050Z,99.5
2023-02-13T01:22:19.291Z,99.5
2023-02-13T01:23:25.543Z,99.5
2023-02-13T01:24:31.863Z,99.5
2023-02-13T01:25:37.135Z,99.5
2023-02-13T01:26:43.424Z,99.5
2023-02-13T01:27:49.490Z,99.5
2023-02-13T01:28:55.997Z,99.5
2023-02-13T01:30:02.187Z,99.5
2023-02-13T01:31:07.629Z,99.5
2023-02-13T01:32:12.838Z,99.5
2023-02-13T01:33:18.088Z,99.5
2023-02-13T01:34:24.384Z,99.5
2023-02-13T01:35:29.689Z,99.5
2023-02-13T01:36:35.918Z,99.5
2023-02-13T01:37:42.233Z,99.5
2023-02-13T01:38:48.475Z,99
2023-02-13T01:39:54.855Z,99
2023-02-13T01:41:01.052Z,99
2023-02-13T01:42:07.288Z,99
2023-02-13T01:43:13.561Z,99
2023-02-13T01:44:19.818Z,99
2023-02-13T01:45:26.115Z,99
2023-02-13T01:46:32.423Z,99
2023-02-13T01:47:38.711Z,99
2023-02-13T01:48:44.935Z,99
2023-02-13T01:49:50.208Z,99
2023-02-13T01:50:56.536Z,99
2023-02-13T01:52:02.765Z,99
2023-02-13T01:53:09.057Z,99
2023-02-13T01:54:15.314Z,99
2023-02-13T01:55:21.549Z,99
2023-02-13T01:56:26.888Z,99.5
2023-02-13T01:57:33.116Z,99.5
2023-02-13T01:58:38.441Z,99.5
2023-02-13T01:59:43.733Z,99.5
2023-02-13T02:00:49.959Z,99.5
2023-02-13T02:01:56.259Z,99.5
2023-02-13T02:03:02.578Z,99.5
2023-02-13T02:04:08.770Z,99.5
2023-02-13T02:05:15.075Z,99.5
2023-02-13T02:06:21.318Z,99.5
2023-02-13T02:07:27.629Z,99.5
2023-02-13T02:08:33.923Z,99.5
2023-02-13T02:09:40.004Z,99.5
2023-02-13T02:10:46.424Z,99.5
2023-02-13T02:11:52.701Z,99.5
2023-02-13T02:12:59.024Z,99.5
2023-02-13T02:14:04.274Z,99.5
2023-02-13T02:15:10.431Z,99.5
2023-02-13T02:16:16.654Z,99.5
2023-02-13T02:17:23.086Z,99.5
2023-02-13T02:18:29.325Z,99.5
2023-02-13T02:19:35.502Z,99.5
2023-02-13T02:20:41.744Z,99.5
2023-02-13T02:21:48.049Z,99.5
2023-02-13T02:22:54.350Z,99.5
2023-02-13T02:24:00.566Z,99.5
2023-02-13T02:25:06.891Z,99.5
2023-02-13T02:26:13.198Z,99.5
2023-02-13T02:27:19.461Z,99.5
2023-02-13T02:28:25.650Z,99.5
2023-02-13T02:29:30.984Z,99.5
2023-02-13T02:30:37.284Z,99.5
2023-02-13T02:31:43.490Z,99.5
2023-02-13T02:32:49.754Z,99.5
2023-02-13T02:33:56.021Z,99.5
2023-02-13T02:35:02.350Z,99.5
2023-02-13T02:36:08.644Z,99.5
2023-02-13T02:37:14.918Z,99.5
2023-02-13T02:38:21.129Z,99.5
2023-02-13T02:39:27.408Z,99.5
2023-02-13T02:40:33.671Z,99.5
2023-02-13T02:41:39.986Z,99.5
2023-02-13T02:42:46.227Z,99.5
2023-02-13T02:43:52.490Z,99.5
2023-02-13T02:44:57.845Z,99.5
2023-02-13T02:46:04.029Z,99.5
2023-02-13T02:47:10.322Z,99.5
2023-02-13T02:48:16.683Z,99.5
2023-02-13T02:49:22.939Z,99.5
2023-02-13T02:50:29.167Z,99.5
2023-02-13T02:51:35.457Z,99.5
2023-02-13T02:52:41.667Z,99.5
2023-02-13T02:53:47.943Z,99.5
2023-02-13T02:54:54.237Z,99.5
2023-02-13T02:56:00.484Z,99.5
2023-02-13T02:57:06.763Z,99.5
2023-02-13T02:58:13.020Z,99.5
2023-02-13T02:59:18.349Z,99.5
2023-02-13T03:00:24.590Z,99
2023-02-13T03:01:30.857Z,99
2023-02-13T03:02:37.133Z,99
2023-02-13T03:03:43.496Z,99
2023-02-13T03:04:49.779Z,99
2023-02-13T03:05:55.968Z,99
2023-02-13T03:07:01.250Z,99
2023-02-13T03:08:07.597Z,99
2023-02-13T03:09:13.842Z,99
2023-02-13T03:10:20.067Z,99
2023-02-13T03:11:25.350Z,99
2023-02-13T03:12:30.748Z,99
2023-02-13T03:13:35.943Z,99
2023-02-13T03:14:42.203Z,99
2023-02-13T03:15:48.488Z,99
2023-02-13T03:16:54.746Z,99
2023-02-13T03:18:01.038Z,99
2023-02-13T03:19:07.307Z,99
2023-02-13T03:20:13.566Z,99
2023-02-13T03:21:19.900Z,99
2023-02-13T03:22:26.211Z,99
2023-02-13T03:23:32.463Z,99
2023-02-13T03:24:38.662Z,99
2023-02-13T03:25:45.003Z,99
2023-02-13T03:26:50.230Z,99
2023-02-13T03:27:56.502Z,99
2023-02-13T03:29:02.827Z,98.5
2023-02-13T03:30:09.089Z,98.5
2023-02-13T03:31:15.321Z,98.5
2023-02-13T03:32:21.586Z,98.5
2023-02-13T03:33:28.110Z,98.5
2023-02-13T03:34:34.134Z,98.5
2023-02-13T03:35:40.405Z,98.5
2023-02-13T03:36:46.681Z,98.5
2023-02-13T03:37:53.048Z,98.5
2023-02-13T03:38:59.244Z,98.5
2023-02-13T03:40:05.539Z,98.5
2023-02-13T03:41:10.793Z,98
2023-02-13T03:42:16.156Z,98
2023-02-13T03:43:22.367Z,98
2023-02-13T03:44:28.649Z,98
2023-02-13T03:45:33.975Z,98
2023-02-13T03:46:39.321Z,98
2023-02-13T03:47:45.484Z,97.5
2023-02-13T03:48:51.773Z,98
2023-02-13T03:49:58.031Z,98
2023-02-13T03:51:04.447Z,98
2023-02-13T03:52:10.582Z,98
2023-02-13T03:53:16.897Z,98
2023-02-13T03:54:23.131Z,98
2023-02-13T03:55:29.403Z,98
2023-02-13T03:56:35.659Z,98
2023-02-13T03:57:41.942Z,98
2023-02-13T03:58:48.197Z,98
2023-02-13T03:59:54.477Z,98
2023-02-13T04:01:00.906Z,98
2023-02-13T04:02:06.040Z,98
2023-02-13T04:03:12.365Z,98
2023-02-13T04:04:18.574Z,98.5
2023-02-13T04:05:24.896Z,98.5
2023-02-13T04:06:31.200Z,98.5
2023-02-13T04:07:37.460Z,98.5
2023-02-13T04:08:42.718Z,98.5
2023-02-13T04:09:48.056Z,98.5
2023-02-13T04:10:54.512Z,98.5
2023-02-13T04:12:00.644Z,98.5
2023-02-13T04:13:05.842Z,98.5
2023-02-13T04:14:11.122Z,98.5
2023-02-13T04:15:17.391Z,98.5
2023-02-13T04:16:23.662Z,98.5
2023-02-13T04:17:29.970Z,98.5
2023-02-13T04:18:36.369Z,98.5
2023-02-13T04:19:42.515Z,98.5
2023-02-13T04:20:48.902Z,98.5
2023-02-13T04:21:55.046Z,99
2023-02-13T04:23:01.387Z,99
2023-02-13T04:24:07.642Z,99
2023-02-13T04:25:13.840Z,99
2023-02-13T04:26:20.114Z,99
2023-02-13T04:27:26.389Z,99
2023-02-13T04:28:31.683Z,99
2023-02-13T04:29:38.033Z,99
2023-02-13T04:30:44.216Z,99
2023-02-13T04:31:50.497Z,99
2023-02-13T04:32:56.770Z,99
2023-02-13T04:34:03.061Z,99
2023-02-13T04:35:09.313Z,99
2023-02-13T04:36:14.643Z,99
2023-02-13T04:37:19.942Z,99
2023-02-13T04:38:26.177Z,99
2023-02-13T04:39:32.459Z,99
2023-02-13T04:40:38.713Z,99
2023-02-13T04:41:44.073Z,99
2023-02-13T04:42:49.292Z,99
2023-02-13T04:43:55.607Z,99
2023-02-13T04:45:01.850Z,99
2023-02-13T04:46:08.151Z,99
2023-02-13T04:47:14.395Z,99
2023-02-13T04:48:20.662Z,98.5
2023-02-13T04:49:26.954Z,98.5
2023-02-13T04:50:33.257Z,98.5
2023-02-13T04:51:39.485Z,99
2023-02-13T04:52:45.754Z,99
2023-02-13T04:53:52.099Z,99
2023-02-13T04:54:58.393Z,99
2023-02-13T04:56:04.654Z,99
2023-02-13T04:57:10.867Z,99
2023-02-13T04:58:16.192Z,99
2023-02-13T04:59:22.404Z,99
2023-02-13T05:00:28.763Z,99
2023-02-13T05:01:35.070Z,99
2023-02-13T05:02:41.225Z,99
2023-02-13T05:03:47.491Z,99
2023-02-13T05:04:52.852Z,99
2023-02-13T05:05:58.143Z,99
2023-02-13T05:07:03.424Z,99
2023-02-13T05:08:08.700Z,99
2023-02-13T05:09:14.965Z,99
2023-02-13T05:10:21.229Z,99
2023-02-13T05:11:27.635Z,99
2023-02-13T05:12:33.797Z,99
2023-02-13T05:13:40.109Z,99
2023-02-13T05:14:46.306Z,99
2023-02-13T05:15:52.581Z,99
2023-02-13T05:16:58.868Z,99
2023-02-13T05:18:05.157Z,99
2023-02-13T05:19:11.432Z,99
2023-02-13T05:20:17.664Z,99
2023-02-13T05:21:24.010Z,99
2023-02-13T05:22:30.235Z,99
2023-02-13T05:23:35.505Z,99.5
2023-02-13T05:24:41.798Z,99.5
2023-02-13T05:25:48.047Z,99.5
2023-02-13T05:26:54.326Z,99.5
2023-02-13T05:28:00.620Z,99.5
2023-02-13T05:29:07.007Z,99.5
2023-02-13T05:30:12.188Z,99.5
2023-02-13T05:31:17.614Z,99.5
2023-02-13T05:32:23.730Z,99.5
2023-02-13T05:33:29.025Z,99.5
2023-02-13T05:34:34.335Z,99.5
2023-02-13T05:35:40.584Z,99.5
2023-02-13T05:36:46.859Z,99.5
2023-02-13T05:37:53.147Z,99.5
2023-02-13T05:38:59.462Z,99.5
2023-02-13T05:40:05.791Z,99.5
2023-02-13T05:41:12.105Z,99.5
2023-02-13T05:42:18.396Z,99.5
2023-02-13T05:43:24.678Z,99.5
2023-02-13T05:44:30.940Z,99.5
2023-02-13T05:45:37.179Z,99.5
2023-02-13T05:46:43.384Z,99.5
2023-02-13T05:47:49.587Z,99.5
2023-02-13T05:48:54.924Z,99.5
2023-02-13T05:50:01.193Z,99.5
2023-02-13T05:51:07.593Z,99.5
2023-02-13T05:52:13.867Z,99.5
2023-02-13T05:53:19.953Z,99.5
2023-02-13T05:54:26.331Z,99.5
2023-02-13T05:55:32.501Z,99.5
2023-02-13T05:56:37.845Z,99.5
2023-02-13T05:57:43.184Z,99.5
2023-02-13T05:58:49.396Z,99.5
2023-02-13T05:59:54.679Z,99.5
2023-02-13T06:01:01.164Z,99.5
2023-02-13T06:02:06.358Z,99.5
2023-02-13T06:03:12.496Z,99.5
2023-02-13T06:04:18.778Z,99.5
2023-02-13T06:05:25.089Z,99.5
2023-02-13T06:06:31.400Z,99.5
2023-02-13T06:07:37.695Z,99.5
2023-02-13T06:08:43.853Z,99.5
2023-02-13T06:09:50.179Z,99.5
2023-02-13T06:10:56.523Z,99.5
2023-02-13T06:12:02.739Z,99.5
2023-02-13T06:13:08.999Z,99.5
2023-02-13T06:14:15.221Z,99.5
2023-02-13T06:15:21.485Z,99.5
2023-02-13T06:16:27.761Z,99.5
2023-02-13T06:17:33.073Z,99.5
2023-02-13T06:18:39.321Z,99.5
2023-02-13T06:19:45.662Z,99.5
2023-02-13T06:20:52.035Z,99.5
2023-02-13T06:21:58.240Z,99.5
2023-02-13T06:23:03.650Z,99.5
2023-02-13T06:24:08.855Z,99.5
2023-02-13T06:25:14.150Z,99.5
2023-02-13T06:26:19.471Z,99.5
2023-02-13T06:27:25.711Z,99.5
2023-02-13T06:28:31.913Z,99.5
2023-02-13T06:29:38.231Z,99.5
2023-02-13T06:30:44.543Z,99.5
2023-02-13T06:31:50.789Z,99.5
2023-02-13T06:32:56.980Z,99.5
2023-02-13T06:34:03.307Z,99.5
2023-02-13T06:35:09.493Z,99.5
2023-02-13T06:36:15.806Z,99.5
2023-02-13T06:37:22.045Z,99.5
2023-02-13T06:38:28.448Z,99.5
2023-02-13T06:39:34.581Z,99.5
2023-02-13T06:40:39.866Z,99.5
2023-02-13T06:41:46.139Z,99.5
2023-02-13T06:42:52.452Z,99.5
2023-02-13T06:43:58.781Z,99.5
2023-02-13T06:45:05.049Z,99.5
2023-02-13T06:46:11.234Z,99.5
2023-02-13T06:47:17.673Z,99.5
2023-02-13T06:48:23.960Z,99.5
2023-02-13T06:49:29.246Z,99.5
2023-02-13T06:50:34.365Z,99.5
2023-02-13T06:51:40.791Z,99.5
2023-02-13T06:52:47.119Z,99.5
2023-02-13T06:53:53.290Z,99.5
2023-02-13T06:54:59.470Z,99
2023-02-13T06:56:04.751Z,99
2023-02-13T06:57:10.196Z,99
2023-02-13T06:58:16.421Z,99
2023-02-13T06:59:22.694Z,99
2023-02-13T07:00:28.983Z,98.5
2023-02-13T07:01:35.266Z,98.5
2023-02-13T07:02:41.558Z,98.5
2023-02-13T07:03:47.755Z,99
2023-02-13T07:04:54.161Z,99
2023-02-13T07:06:00.436Z,99
2023-02-13T07:07:06.658Z,99
2023-02-13T07:08:11.881Z,99
2023-02-13T07:09:18.215Z,99
2023-02-13T07:10:24.511Z,99
2023-02-13T07:11:30.611Z,99
2023-02-13T07:12:37.044Z,99
2023-02-13T07:13:43.279Z,99
2023-02-13T07:14:49.587Z,99
2023-02-13T07:15:55.855Z,99
2023-02-13T07:17:02.122Z,99
2023-02-13T07:18:08.314Z,99
2023-02-13T07:19:13.583Z,99
2023-02-13T07:20:18.900Z,99
2023-02-13T07:21:25.201Z,99
2023-02-13T07:22:30.488Z,99
2023-02-13T07:23:36.811Z,99
2023-02-13T07:24:42.085Z,99
2023-02-13T07:25:48.324Z,99
2023-02-13T07:26:54.508Z,99
2023-02-13T07:28:00.848Z,99
2023-02-13T07:29:07.068Z,99
2023-02-13T07:30:13.355Z,99
2023-02-13T07:31:19.763Z,99
2023-02-13T07:32:26.066Z,98.5
2023-02-13T07:33:32.137Z,98.5
2023-02-13T07:34:38.571Z,98.5
2023-02-13T07:35:44.753Z,98.5
2023-02-13T07:36:50.988Z,98.5
2023-02-13T07:37:57.306Z,98.5
2023-02-13T07:39:02.580Z,99
2023-02-13T07:40:08.966Z,99
2023-02-13T07:41:15.175Z,99
2023-02-13T07:42:21.369Z,99.5
2023-02-13T07:43:27.681Z,99.5
2023-02-13T07:44:33.961Z,99.5
2023-02-13T07:45:40.255Z,99.5
2023-02-13T07:46:46.584Z,99.5
2023-02-13T07:47:52.759Z,99.5
2023-02-13T07:48:59.053Z,99.5
2023-02-13T07:50:05.382Z,99.5
2023-02-13T07:51:11.611Z,99.5
2023-02-13T07:52:17.026Z,99.5
2023-02-13T07:53:22.232Z,99.5
2023-02-13T07:54:28.536Z,99.5
2023-02-13T07:55:34.897Z,99
2023-02-13T07:56:41.012Z,99
2023-02-13T07:57:47.182Z,99
2023-02-13T07:58:53.604Z,98.5
2023-02-13T07:59:59.871Z,98.5
2023-02-13T08:01:06.178Z,98
2023-02-13T08:02:12.434Z,98
2023-02-13T08:03:18.745Z,98
2023-02-13T08:04:24.889Z,98
2023-02-13T08:05:31.269Z,97.5
2023-02-13T08:06:37.535Z,98
2023-02-13T08:07:42.838Z,98
2023-02-13T08:08:49.036Z,98
2023-02-13T08:09:55.301Z,98
2023-02-13T08:11:01.620Z,98
2023-02-13T08:12:07.928Z,98
2023-02-13T08:13:14.123Z,98
2023-02-13T08:15:26.562Z,98
2023-02-13T08:16:31.919Z,98
2023-02-13T08:17:37.205Z,98
2023-02-13T08:18:42.507Z,98
2023-02-13T08:19:47.829Z,98.5
2023-02-13T08:20:54.095Z,99
2023-02-13T08:21:59.373Z,99
2023-02-13T08:23:04.601Z,99
2023-02-13T08:24:11.072Z,99
2023-02-13T08:25:17.297Z,99
2023-02-13T08:26:23.560Z,99.5
2023-02-13T08:27:29.738Z,99.5
2023-02-13T08:28:36.102Z,99.5
2023-02-13T08:29:42.330Z,99.5
2023-02-13T08:30:48.715Z,99.5
2023-02-13T08:31:54.820Z,99.5
2023-02-13T08:33:01.117Z,99.5
2023-02-13T08:34:07.468Z,99.5
2023-02-13T08:35:13.660Z,99.5
2023-02-13T08:36:20.021Z,99.5
2023-02-13T08:37:25.442Z,99.5
2023-02-13T08:38:31.546Z,99
2023-02-13T08:39:37.697Z,99
2023-02-13T08:40:43.971Z,99
2023-02-13T08:41:50.413Z,99
2023-02-13T08:42:56.646Z,99
2023-02-13T08:44:02.980Z,98.5
2023-02-13T08:45:08.222Z,98.5
2023-02-13T08:46:13.471Z,98.5
2023-02-13T08:47:19.819Z,98.5
2023-02-13T08:48:25.919Z,98.5
2023-02-13T08:49:31.217Z,99
2023-02-13T08:50:37.490Z,99
2023-02-13T08:51:43.894Z,99
2023-02-13T08:52:49.126Z,99
2023-02-13T08:53:55.457Z,99
2023-02-13T08:55:01.708Z,99
2023-02-13T08:56:07.912Z,99
2023-02-13T08:57:14.138Z,99
2023-02-13T08:58:20.559Z,99
2023-02-13T08:59:26.759Z,99
2023-02-13T09:00:33.074Z,99
2023-02-13T09:01:39.399Z,98
2023-02-13T09:02:45.687Z,98
2023-02-13T09:03:51.932Z,98
2023-02-13T09:04:58.230Z,98
2023-02-13T09:06:04.455Z,98
2023-02-13T09:07:09.724Z,97.5
2023-02-13T09:08:15.875Z,98
2023-02-13T09:09:22.152Z,98
2023-02-13T09:10:28.433Z,98
2023-02-13T09:11:34.749Z,98
2023-02-13T09:12:40.002Z,98
2023-02-13T09:13:46.893Z,98
2023-02-13T09:14:51.571Z,98
2023-02-13T09:15:57.838Z,98.5
2023-02-13T09:17:03.133Z,98.5
2023-02-13T09:18:09.461Z,98.5
2023-02-13T09:19:15.676Z,98.5
2023-02-13T09:20:21.960Z,98
2023-02-13T09:21:28.251Z,98
2023-02-13T09:22:34.492Z,97.5
2023-02-13T09:23:40.763Z,97.5
2023-02-13T09:24:47.046Z,97
2023-02-13T09:25:53.371Z,97
2023-02-13T09:26:59.737Z,97.5
2023-02-13T09:28:06.036Z,97.5
2023-02-13T09:29:12.248Z,97.5
2023-02-13T09:30:18.464Z,97.5
2023-02-13T09:31:23.797Z,97.5
2023-02-13T09:32:30.095Z,97.5
2023-02-13T09:33:36.243Z,97.5
2023-02-13T09:34:42.514Z,97.5
2023-02-13T09:35:48.782Z,97.5
2023-02-13T09:36:55.117Z,97.5
2023-02-13T09:38:00.463Z,97.5
2023-02-13T09:39:06.637Z,97.5
2023-02-13T09:40:11.955Z,97.5
2023-02-13T09:41:17.229Z,97.5
2023-02-13T09:42:23.484Z,97.5
2023-02-13T09:43:29.889Z,97.5
2023-02-13T09:44:36.065Z,97.5
2023-02-13T09:45:42.341Z,97.5
2023-02-13T09:46:48.668Z,97.5
2023-02-13T09:47:54.850Z,97.5
2023-02-13T09:49:01.116Z,97.5
2023-02-13T09:50:07.396Z,97.5
2023-02-13T09:51:13.664Z,97.5
2023-02-13T09:52:19.965Z,97.5
2023-02-13T09:53:26.213Z,97.5
2023-02-13T09:54:32.490Z,97
2023-02-13T09:55:37.772Z,97
2023-02-13T09:56:44.044Z,97
2023-02-13T09:57:50.313Z,97
2023-02-13T09:58:56.586Z,97
2023-02-13T10:00:02.867Z,97
2023-02-13T10:01:09.130Z,97
2023-02-13T10:02:15.399Z,97
2023-02-13T10:03:21.676Z,97
2023-02-13T10:04:27.955Z,97
2023-02-13T10:05:34.220Z,97
2023-02-13T10:06:40.517Z,97
2023-02-13T10:07:46.874Z,96.5
2023-02-13T10:08:53.106Z,96.5
2023-02-13T10:09:59.383Z,96.5
2023-02-13T10:11:04.671Z,96
2023-02-13T10:12:11.030Z,96
2023-02-13T10:13:17.164Z,95.5
2023-02-13T10:14:23.413Z,95.5
2023-02-13T10:15:29.685Z,95.5
2023-02-13T10:16:35.974Z,96.5
2023-02-13T10:17:42.243Z,97
2023-02-13T10:18:47.534Z,97.5
2023-02-13T10:19:52.823Z,98
2023-02-13T10:20:59.093Z,98
2023-02-13T10:22:04.405Z,98
2023-02-13T10:23:09.701Z,98.5
2023-02-13T10:24:15.954Z,98.5
2023-02-13T10:25:22.232Z,98.5
2023-02-13T10:26:28.510Z,98.5
2023-02-13T10:27:34.777Z,99
2023-02-13T10:28:41.044Z,99
2023-02-13T10:29:47.320Z,98.5
2023-02-13T10:30:53.605Z,98.5
2023-02-13T10:31:59.871Z,98.5
2023-02-13T10:33:06.135Z,98.5
2023-02-13T10:34:12.435Z,98
2023-02-13T10:35:18.687Z,97.5
2023-02-13T10:36:24.949Z,97.5
2023-02-13T10:37:31.219Z,97.5
2023-02-13T10:38:36.533Z,97
2023-02-13T10:39:42.785Z,97
2023-02-13T10:40:49.060Z,97
2023-02-13T10:41:55.340Z,97
2023-02-13T10:43:01.604Z,96.5
2023-02-13T10:44:07.879Z,96
2023-02-13T10:45:13.195Z,96
2023-02-13T10:46:19.549Z,95.5
2023-02-13T10:47:25.846Z,95.5
2023-02-13T10:48:31.162Z,95.5
2023-02-13T10:49:36.303Z,95.5
2023-02-13T10:50:42.650Z,95.5
2023-02-13T10:51:48.898Z,95.5
2023-02-13T10:52:55.128Z,95.5
2023-02-13T10:54:01.393Z,95
2023-02-13T10:55:07.839Z,95
2023-02-13T10:56:13.944Z,95
2023-02-13T10:57:20.358Z,95
2023-02-13T10:58:26.491Z,95
2023-02-13T10:59:32.906Z,95.5
2023-02-13T11:00:39.058Z,95
2023-02-13T11:01:45.302Z,94.5
2023-02-13T11:02:51.574Z,95
2023-02-13T11:03:57.853Z,95
2023-02-13T11:05:03.132Z,95.5
2023-02-13T11:06:09.415Z,95.5
2023-02-13T11:07:15.679Z,95.5
2023-02-13T11:08:21.957Z,95.5
2023-02-13T11:09:28.240Z,95.5
2023-02-13T11:10:34.494Z,96
2023-02-13T11:11:40.779Z,96
2023-02-13T11:12:47.042Z,95.5
2023-02-13T11:13:53.306Z,95.5
2023-02-13T11:14:59.576Z,95.5
2023-02-13T11:16:05.853Z,95.5
2023-02-13T11:17:12.130Z,96
2023-02-13T11:18:17.432Z,95.5
2023-02-13T11:19:22.713Z,95
2023-02-13T11:20:28.029Z,95
2023-02-13T11:21:33.299Z,95.5
2023-02-13T11:22:39.615Z,95
2023-02-13T11:23:45.841Z,95.5
2023-02-13T11:24:52.119Z,95.5
2023-02-13T11:25:58.389Z,96
2023-02-13T11:27:04.664Z,96.5
2023-02-13T11:28:10.933Z,96.5
2023-02-13T11:29:17.209Z,96
2023-02-13T11:30:23.478Z,96
2023-02-13T11:31:29.751Z,95.5
2023-02-13T11:32:36.008Z,95.5
2023-02-13T11:33:42.296Z,95.5
2023-02-13T11:34:48.564Z,95.5
2023-02-13T11:35:53.852Z,96
2023-02-13T11:37:00.140Z,96
2023-02-13T11:38:06.426Z,96
2023-02-13T11:39:12.678Z,96
2023-02-13T11:40:18.951Z,96
2023-02-13T11:41:25.221Z,96
2023-02-13T11:42:31.490Z,95.5
2023-02-13T11:43:37.839Z,95.5
2023-02-13T11:44:43.135Z,95.5
2023-02-13T11:45:48.478Z,95
2023-02-13T11:46:53.832Z,95
2023-02-13T11:48:00.095Z,94.5
2023-02-13T11:49:05.275Z,95
2023-02-13T11:50:11.486Z,95
2023-02-13T11:51:17.777Z,95
2023-02-13T11:52:24.034Z,95
2023-02-13T11:53:30.318Z,94.5
2023-02-13T11:54:36.577Z,94.5
2023-02-13T11:55:42.886Z,94
2023-02-13T11:56:49.124Z,94.5
2023-02-13T11:57:55.449Z,94.5
2023-02-13T11:59:01.688Z,94.5
2023-02-13T12:00:07.974Z,95
2023-02-13T12:01:14.209Z,95
2023-02-13T12:02:20.508Z,95
2023-02-13T12:03:25.781Z,95.5
2023-02-13T12:04:32.044Z,95.5
2023-02-13T12:05:38.326Z,95.5
2023-02-13T12:06:44.597Z,95.5
2023-02-13T12:07:50.868Z,95.5
2023-02-13T12:08:57.260Z,95.5
2023-02-13T12:10:03.606Z,95.5
2023-02-13T12:11:09.775Z,95.5
2023-02-13T12:12:14.983Z,95.5
2023-02-13T12:13:20.385Z,95.5
2023-02-13T12:14:26.601Z,95.5
2023-02-13T12:15:32.809Z,95.5
2023-02-13T12:16:38.121Z,95.5
2023-02-13T12:17:44.381Z,95.5
2023-02-13T12:18:49.671Z,95
2023-02-13T12:19:56.139Z,94.5
2023-02-13T12:21:02.222Z,95
2023-02-13T12:22:08.636Z,95
2023-02-13T12:23:14.917Z,95
2023-02-13T12:24:21.204Z,95.5
2023-02-13T12:25:27.407Z,95.5
2023-02-13T12:26:33.594Z,95.5
2023-02-13T12:27:39.839Z,95.5
2023-02-13T12:28:46.281Z,95
2023-02-13T12:29:52.386Z,94.5
2023-02-13T12:30:58.740Z,94.5
2023-02-13T12:32:05.096Z,94.5
2023-02-13T12:33:11.372Z,94.5
2023-02-13T12:34:16.702Z,94.5
2023-02-13T12:35:22.948Z,95
2023-02-13T12:36:29.252Z,95
2023-02-13T12:37:35.483Z,95
2023-02-13T12:38:41.753Z,95
2023-02-13T12:39:46.881Z,95
2023-02-13T12:40:52.316Z,95.5
2023-02-13T12:41:57.629Z,95.5
2023-02-13T12:43:03.937Z,95
2023-02-13T12:44:09.254Z,95
2023-02-13T12:45:15.301Z,95
2023-02-13T12:46:21.710Z,95
2023-02-13T12:47:28.035Z,95
2023-02-13T12:48:34.244Z,95
2023-02-13T12:49:40.600Z,95
2023-02-13T12:50:46.717Z,94.5
2023-02-13T12:51:53.165Z,94.5
2023-02-13T12:52:59.304Z,94.5
2023-02-13T12:54:05.739Z,94
2023-02-13T12:55:11.892Z,93.5
2023-02-13T12:56:18.106Z,93.5
2023-02-13T12:57:24.469Z,94
2023-02-13T12:58:29.737Z,94
2023-02-13T12:59:35.954Z,94
2023-02-13T13:00:42.251Z,93.5
2023-02-13T13:01:48.399Z,93.5
2023-02-13T13:02:54.671Z,93.5
2023-02-13T13:04:01.063Z,94
2023-02-13T13:05:06.401Z,94
2023-02-13T13:06:12.678Z,94
2023-02-13T13:07:18.031Z,94
2023-02-13T13:08:23.267Z,94
2023-02-13T13:09:29.541Z,93.5
2023-02-13T13:10:35.816Z,93.5
2023-02-13T13:11:42.129Z,93.5
2023-02-13T13:12:48.350Z,93.5
2023-02-13T13:13:54.644Z,93.5
2023-02-13T13:15:00.957Z,93
2023-02-13T13:16:07.121Z,92.5
2023-02-13T13:17:13.450Z,93
2023-02-13T13:18:19.740Z,93
2023-02-13T13:19:25.989Z,93
2023-02-13T13:20:32.282Z,93.5
2023-02-13T13:21:38.531Z,93.5
2023-02-13T13:22:43.846Z,94
2023-02-13T13:23:49.938Z,94
2023-02-13T13:24:56.389Z,94.5
2023-02-13T13:26:02.619Z,95
2023-02-13T13:27:08.747Z,95
2023-02-13T13:28:15.173Z,95
2023-02-13T13:29:21.479Z,95
2023-02-13T13:30:26.758Z,95
2023-02-13T13:31:33.043Z,95
2023-02-13T13:32:38.345Z,95.5
2023-02-13T13:33:43.655Z,95
2023-02-13T13:34:49.872Z,95
2023-02-13T13:35:56.183Z,95
2023-02-13T13:37:02.437Z,95
2023-02-13T13:38:08.569Z,95
2023-02-13T13:39:14.981Z,95
2023-02-13T13:40:21.223Z,95
2023-02-13T13:41:27.575Z,95
2023-02-13T13:42:33.845Z,94.5
2023-02-13T13:43:39.922Z,94.5
2023-02-13T13:44:46.343Z,94.5
2023-02-13T13:45:52.445Z,94.5
2023-02-13T13:46:58.860Z,94.5
2023-02-13T13:48:04.155Z,94.5
2023-02-13T13:49:10.431Z,94.5
2023-02-13T13:50:16.547Z,94.5
2023-02-13T13:51:22.828Z,94.5
2023-02-13T13:52:29.305Z,94.5
2023-02-13T13:53:35.525Z,94.5
2023-02-13T13:54:41.818Z,94.5
2023-02-13T13:55:48.188Z,94.5
2023-02-13T13:56:53.398Z,94.5
2023-02-13T13:57:58.507Z,94.5
2023-02-13T13:59:03.973Z,94.5
2023-02-13T14:00:09.204Z,94.5
2023-02-13T14:01:15.555Z,94
2023-02-13T14:02:21.765Z,94
2023-02-13T14:03:28.061Z,94
2023-02-13T14:04:34.221Z,94
2023-02-13T14:05:40.452Z,94.5
2023-02-13T14:06:46.927Z,94.5
2023-02-13T14:07:53.146Z,94.5
2023-02-13T14:08:59.436Z,94.5
2023-02-13T14:10:05.530Z,94.5
2023-02-13T14:11:11.930Z,94.5
2023-02-13T14:12:18.229Z,94.5
2023-02-13T14:13:24.560Z,94.5
2023-02-13T14:14:30.852Z,94.5
2023-02-13T14:15:36.068Z,94.5
2023-02-13T14:16:42.327Z,94.5
2023-02-13T14:17:48.528Z,94.5
2023-02-13T14:18:54.788Z,94.5
2023-02-13T14:20:01.087Z,94.5
2023-02-13T14:21:07.437Z,94.5
2023-02-13T14:22:13.553Z,94.5
2023-02-13T14:23:19.945Z,94.5
2023-02-13T14:24:26.130Z,94.5
2023-02-13T14:25:32.389Z,94.5
2023-02-13T14:26:38.661Z,94.5
2023-02-13T14:27:44.914Z,94.5
2023-02-13T14:28:51.200Z,94.5
2023-02-13T14:29:56.464Z,94.5
2023-02-13T14:31:01.751Z,94.5
2023-02-13T14:32:07.185Z,94.5
2023-02-13T14:33:12.337Z,94.5
2023-02-13T14:34:18.615Z,94.5
2023-02-13T14:35:24.919Z,94.5
2023-02-13T14:36:30.213Z,94.5
2023-02-13T14:37:35.513Z,94
2023-02-13T14:38:41.779Z,94.5
2023-02-13T14:39:48.010Z,94.5
2023-02-13T14:40:54.442Z,94.5
2023-02-13T14:42:00.699Z,94.5
2023-02-13T14:43:06.964Z,94
2023-02-13T14:44:13.291Z,94
2023-02-13T14:45:19.502Z,94
2023-02-13T14:46:25.743Z,94.5
2023-02-13T14:47:32.048Z,95
2023-02-13T14:48:38.207Z,95.5
2023-02-13T14:49:44.599Z,95.5
2023-02-13T14:50:50.822Z,96
2023-02-13T14:51:56.179Z,96
2023-02-13T14:53:02.378Z,96
2023-02-13T14:54:08.759Z,96
2023-02-13T14:55:14.914Z,96.5
2023-02-13T14:56:21.138Z,96.5
2023-02-13T14:57:27.396Z,96.5
2023-02-13T14:58:33.674Z,96.5
2023-02-13T14:59:39.051Z,96.5
2023-02-13T15:00:44.290Z,96.5
2023-02-13T15:01:49.685Z,96
2023-02-13T15:02:54.925Z,96
2023-02-13T15:04:01.233Z,96
2023-02-13T15:05:07.481Z,96